Time;durP1;ratioP1;P1;durP2;ratioP2;P2;SDS_P1;SDS_P2;PMS_P1;PMS_P2;Temp;Humidity;BMP_temperature;BMP_pressure;BME280_temperature;BME280_humidity;BME280_pressure;Samples;Min_cycle;Max_cycle;Signal;HPM_P1;HPM_P2
2023/09/23 00:01:32;;;;;;;0.10;0.10;;;;;;;11.73;54.00;100599.84;7363671;19;20033;-61
2023/09/23 00:03:57;;;;;;;0.00;0.00;;;;;;;11.75;54.25;100608.50;7364222;19;20006;-61
2023/09/23 00:06:24;;;;;;;0.10;0.10;;;;;;;11.74;54.57;100612.03;7358380;19;20018;-62
2023/09/23 00:08:50;;;;;;;0.10;0.10;;;;;;;11.65;54.40;100614.00;7358333;19;20675;-61
2023/09/23 00:11:16;;;;;;;0.03;0.03;;;;;;;11.65;54.62;100619.22;7360374;19;20006;-61
2023/09/23 00:13:42;;;;;;;0.08;0.08;;;;;;;11.64;54.08;100622.75;7363578;19;20010;-61
2023/09/23 00:16:10;;;;;;;0.10;0.10;;;;;;;11.62;54.50;100619.34;7360984;19;20925;-61
2023/09/23 00:18:36;;;;;;;0.03;0.03;;;;;;;11.59;54.59;100629.88;7363057;19;20035;-60
2023/09/23 00:21:05;;;;;;;0.00;0.00;;;;;;;11.57;54.57;100631.69;7352293;19;20018;-61
2023/09/23 00:23:32;;;;;;;0.00;0.00;;;;;;;11.51;54.85;100625.78;7362208;19;20029;-62
2023/09/23 00:25:58;;;;;;;0.10;0.10;;;;;;;11.51;54.50;100634.47;7360507;19;20728;-61
2023/09/23 00:28:25;;;;;;;0.10;0.10;;;;;;;11.40;54.56;100631.28;7360332;19;20017;-61
2023/09/23 00:30:51;;;;;;;0.00;0.00;;;;;;;11.43;55.13;100631.19;7356588;19;20014;-61
2023/09/23 00:33:17;;;;;;;0.00;0.00;;;;;;;11.43;54.81;100623.34;7362822;19;20367;-61
2023/09/23 00:35:44;;;;;;;0.00;0.00;;;;;;;11.36;55.43;100621.81;7359190;19;20057;-61
2023/09/23 00:38:11;;;;;;;0.00;0.00;;;;;;;11.35;54.64;100630.53;7360304;19;20357;-61
2023/09/23 00:40:38;;;;;;;0.00;0.00;;;;;;;11.35;54.59;100646.22;7357737;19;20015;-61
2023/09/23 00:43:12;;;;;;;0.10;0.10;;;;;;;11.32;54.94;100643.72;7359549;19;21134;-61
2023/09/23 00:45:48;;;;;;;0.00;0.00;;;;;;;11.26;54.53;100643.88;7361586;19;20009;-60
2023/09/23 00:48:18;;;;;;;0.00;0.00;;;;;;;11.16;54.81;100638.88;7363274;19;20018;-61
2023/09/23 00:50:43;;;;;;;0.00;0.00;;;;;;;11.23;55.46;100646.56;7355211;19;20018;-61
2023/09/23 00:53:09;;;;;;;0.00;0.00;;;;;;;11.14;55.49;100643.28;7360811;19;20007;-61
2023/09/23 00:55:42;;;;;;;0.10;0.10;;;;;;;11.21;55.50;100664.06;7355744;19;20017;-61
2023/09/23 00:58:14;;;;;;;0.10;0.10;;;;;;;11.15;55.70;100650.25;7367514;19;20006;-61
2023/09/23 01:00:43;;;;;;;0.10;0.10;;;;;;;10.99;55.43;100620.16;7353452;19;20093;-61
2023/09/23 01:03:09;;;;;;;0.10;0.10;;;;;;;11.14;55.71;100642.41;7362958;19;20377;-61
2023/09/23 01:05:34;;;;;;;0.10;0.10;;;;;;;11.16;55.70;100640.66;7369824;19;20015;-61
2023/09/23 01:08:03;;;;;;;0.03;0.03;;;;;;;11.17;55.90;100653.66;7355272;19;20046;-61
2023/09/23 01:10:28;;;;;;;0.05;0.05;;;;;;;11.12;55.88;100655.53;7361203;19;20782;-61
2023/09/23 01:12:54;;;;;;;0.10;0.10;;;;;;;11.12;56.20;100655.53;7355860;19;20018;-62
2023/09/23 01:15:21;;;;;;;0.00;0.00;;;;;;;11.18;56.04;100664.97;7359995;19;20014;-61
2023/09/23 01:17:49;;;;;;;0.10;0.10;;;;;;;11.19;56.16;100658.84;7361392;19;20034;-61
2023/09/23 01:20:16;;;;;;;0.05;0.05;;;;;;;11.05;56.42;100635.69;7362663;19;20078;-60
2023/09/23 01:22:42;;;;;;;0.00;0.00;;;;;;;11.16;56.42;100648.47;7361821;19;20031;-61
2023/09/23 01:25:08;;;;;;;0.08;0.08;;;;;;;11.20;55.70;100657.09;7362488;19;20051;-61
2023/09/23 01:27:34;;;;;;;0.10;0.10;;;;;;;11.20;56.32;100657.94;7358670;19;20558;-61
2023/09/23 01:30:06;;;;;;;0.00;0.00;;;;;;;11.14;56.42;100653.72;7360451;19;19998;-61
2023/09/23 01:32:42;;;;;;;0.00;0.00;;;;;;;11.18;55.83;100652.75;7360023;19;20118;-61
2023/09/23 01:35:09;;;;;;;0.00;0.00;;;;;;;11.07;55.92;100640.88;7360807;19;20086;-61
2023/09/23 01:37:35;;;;;;;0.00;0.00;;;;;;;11.11;56.36;100658.19;7367619;19;20470;-62
2023/09/23 01:40:00;;;;;;;0.10;0.10;;;;;;;11.12;56.48;100655.53;7363205;19;20016;-61
2023/09/23 01:42:28;;;;;;;0.10;0.10;;;;;;;10.99;56.81;100638.44;7368058;19;20014;-61
2023/09/23 01:44:54;;;;;;;0.00;0.00;;;;;;;11.09;56.22;100650.38;7361620;19;20011;-61
2023/09/23 01:47:21;;;;;;;0.10;0.10;;;;;;;10.96;56.33;100633.31;7370197;19;20009;-61
2023/09/23 01:49:47;;;;;;;0.00;0.00;;;;;;;11.07;56.81;100657.41;7375387;19;20454;-61
2023/09/23 01:52:16;;;;;;;0.10;0.10;;;;;;;11.01;56.59;100649.72;7359212;19;20005;-61
2023/09/23 01:54:44;;;;;;;0.08;0.08;;;;;;;11.03;57.03;100650.53;7365998;19;20062;-61
2023/09/23 01:57:12;;;;;;;;;;;;;;;11.01;54.22;100660.19;7369978;19;20090;-61
2023/09/23 01:59:40;;;;;;;0.00;0.00;;;;;;;10.96;56.50;100658.59;7367092;19;19921;-60
2023/09/23 02:02:06;;;;;;;0.00;0.00;;;;;;;10.92;56.50;100657.78;7365755;19;20018;-61
2023/09/23 02:04:33;;;;;;;0.00;0.00;;;;;;;10.88;56.79;100661.38;7364587;19;20521;-61
2023/09/23 02:06:59;;;;;;;0.00;0.00;;;;;;;10.79;57.04;100641.56;7360159;19;20011;-61
2023/09/23 02:09:24;;;;;;;0.10;0.10;;;;;;;10.80;56.77;100650.28;7366692;19;20015;-61
2023/09/23 02:11:49;;;;;;;0.00;0.00;;;;;;;10.76;56.86;100651.25;7365467;19;20010;-63
2023/09/23 02:14:15;;;;;;;0.00;0.00;;;;;;;10.68;56.78;100654.00;7367385;19;20062;-63
2023/09/23 02:16:41;;;;;;;0.00;0.00;;;;;;;10.67;56.72;100667.13;7376131;19;20455;-63
2023/09/23 02:19:06;;;;;;;0.00;0.00;;;;;;;10.47;57.12;100639.72;7371111;19;20031;-63
2023/09/23 02:21:32;;;;;;;0.00;0.00;;;;;;;10.57;56.97;100663.88;7368150;19;20015;-60
2023/09/23 02:23:57;;;;;;;0.10;0.10;;;;;;;10.51;57.17;100667.47;7375862;19;20010;-61
2023/09/23 02:26:24;;;;;;;0.00;0.00;;;;;;;10.48;57.29;100669.28;7370698;19;20010;-60
2023/09/23 02:28:49;;;;;;;0.00;0.00;;;;;;;10.42;57.37;100667.69;7365595;19;20010;-63
2023/09/23 02:31:15;;;;;;;0.03;0.03;;;;;;;10.25;57.22;100656.78;7362756;19;20022;-64
2023/09/23 02:33:43;;;;;;;0.00;0.00;;;;;;;10.03;57.16;100632.84;7370405;19;20010;-62
2023/09/23 02:36:08;;;;;;;0.00;0.00;;;;;;;10.27;57.21;100681.06;7365489;19;20487;-63
2023/09/23 02:38:34;;;;;;;0.10;0.10;;;;;;;10.09;57.01;100659.69;7368968;19;20022;-62
2023/09/23 02:41:02;;;;;;;0.05;0.05;;;;;;;10.20;57.29;100687.28;7368072;19;20030;-62
2023/09/23 02:43:27;;;;;;;0.00;0.00;;;;;;;9.97;57.46;100648.63;7366257;19;20015;-62
2023/09/23 02:45:56;;;;;;;0.00;0.00;;;;;;;10.12;57.05;100663.97;7363126;19;20030;-63
2023/09/23 02:48:21;;;;;;;0.00;0.00;;;;;;;9.93;57.66;100650.44;7367888;19;20070;-63
2023/09/23 02:50:47;;;;;;;0.10;0.10;;;;;;;10.03;57.97;100685.88;7366756;19;21979;-63
2023/09/23 02:53:12;;;;;;;0.10;0.10;;;;;;;9.84;57.89;100655.88;7368924;19;20041;-63
2023/09/23 02:55:41;;;;;;;0.00;0.00;;;;;;;9.96;57.77;100675.63;7360062;19;20011;-63
2023/09/23 02:58:07;;;;;;;0.10;0.10;;;;;;;9.93;57.93;100673.91;7366734;19;20015;-63
2023/09/23 03:00:34;;;;;;;0.00;0.00;;;;;;;9.91;57.74;100674.84;7373426;19;20011;-63
2023/09/23 03:03:08;;;;;;;0.00;0.00;;;;;;;9.87;58.41;100680.13;7365299;19;20010;-63
2023/09/23 03:05:38;;;;;;;0.03;0.03;;;;;;;9.78;58.13;100669.00;7366676;19;20017;-63
2023/09/23 03:08:07;;;;;;;0.00;0.00;;;;;;;9.79;58.22;100676.81;7367548;19;20015;-63
2023/09/23 03:10:34;;;;;;;0.00;0.00;;;;;;;9.76;58.13;100676.88;7365511;19;20011;-63
2023/09/23 03:13:05;;;;;;;0.10;0.10;;;;;;;9.75;58.34;100675.16;7365002;19;20021;-63
2023/09/23 03:15:36;;;;;;;0.00;0.00;;;;;;;9.74;57.89;100683.03;7370170;19;20879;-63
2023/09/23 03:18:02;;;;;;;0.00;0.00;;;;;;;9.53;58.29;100651.25;7339308;19;20027;-63
2023/09/23 03:20:28;;;;;;;0.10;0.10;;;;;;;9.66;58.62;100669.25;7368090;19;20422;-63
2023/09/23 03:22:54;;;;;;;0.00;0.00;;;;;;;9.65;58.59;100662.34;7363802;19;20009;-61
2023/09/23 03:25:20;;;;;;;0.10;0.10;;;;;;;9.61;58.66;100664.97;7368817;19;20022;-63
2023/09/23 03:27:47;;;;;;;0.00;0.00;;;;;;;9.59;58.73;100674.59;7358979;19;20014;-63
2023/09/23 03:30:13;;;;;;;0.10;0.10;;;;;;;9.46;58.85;100662.66;7368816;19;20047;-63
2023/09/23 03:32:39;;;;;;;0.05;0.05;;;;;;;9.54;58.77;100671.22;7354586;19;20025;-63
2023/09/23 03:35:07;;;;;;;0.10;0.10;;;;;;;9.52;58.44;100669.50;7366025;19;20020;-63
2023/09/23 03:37:32;;;;;;;0.00;0.00;;;;;;;9.47;58.70;100666.13;7362925;19;20007;-63
2023/09/23 03:39:59;;;;;;;0.00;0.00;;;;;;;9.44;59.11;100679.25;7366412;19;20013;-62
2023/09/23 03:42:26;;;;;;;0.10;0.10;;;;;;;9.41;59.15;100681.88;7361726;19;20509;-63
2023/09/23 03:44:51;;;;;;;0.00;0.00;;;;;;;9.40;58.98;100688.84;7367968;19;20048;-63
2023/09/23 03:47:16;;;;;;;0.00;0.00;;;;;;;9.35;59.35;100677.66;7363730;19;20433;-62
2023/09/23 03:49:42;;;;;;;0.10;0.10;;;;;;;9.32;59.26;100670.72;7363089;19;20035;-63
2023/09/23 03:52:07;;;;;;;0.00;0.00;;;;;;;9.25;59.40;100663.06;7342946;19;20002;-63
2023/09/23 03:54:33;;;;;;;0.05;0.05;;;;;;;8.68;59.39;100566.84;7368109;19;20010;-63
2023/09/23 03:56:59;;;;;;;0.00;0.00;;;;;;;9.15;59.46;100648.50;7363172;19;20019;-61
2023/09/23 03:59:25;;;;;;;0.00;0.00;;;;;;;9.31;58.60;100683.81;7366184;19;20010;-63
2023/09/23 04:01:51;;;;;;;0.00;0.00;;;;;;;9.21;59.63;100656.19;7357404;19;20003;-63
2023/09/23 04:04:17;;;;;;;0.03;0.03;;;;;;;9.15;59.64;100656.31;7365446;19;20046;-63
2023/09/23 04:06:43;;;;;;;0.00;0.00;;;;;;;9.13;59.48;100647.66;7367883;19;20010;-63
2023/09/23 04:09:12;;;;;;;0.10;0.10;;;;;;;9.12;59.53;100652.00;7361084;19;20019;-63
2023/09/23 04:11:37;;;;;;;0.00;0.00;;;;;;;9.22;59.76;100674.38;7368915;19;20573;-63
2023/09/23 04:14:03;;;;;;;0.00;0.00;;;;;;;9.19;59.92;100671.84;7364724;19;20002;-63
2023/09/23 04:16:28;;;;;;;0.00;0.00;;;;;;;9.20;59.03;100670.97;7366897;19;20772;-63
2023/09/23 04:18:53;;;;;;;0.10;0.10;;;;;;;9.19;60.19;100673.59;7366112;19;20378;-63
2023/09/23 04:21:20;;;;;;;0.00;0.00;;;;;;;9.14;60.17;100680.66;7365188;19;19998;-63
2023/09/23 04:23:48;;;;;;;0.00;0.00;;;;;;;9.05;60.15;100672.09;7359112;19;20021;-62
2023/09/23 04:26:14;;;;;;;0.00;0.00;;;;;;;9.17;60.21;100694.44;7367982;19;20033;-62
2023/09/23 04:28:39;;;;;;;0.10;0.10;;;;;;;9.09;60.11;100675.50;7362098;19;20007;-63
2023/09/23 04:31:06;;;;;;;0.10;0.10;;;;;;;9.19;60.44;100699.66;7363475;19;20030;-63
2023/09/23 04:33:32;;;;;;;0.00;0.00;;;;;;;9.07;60.17;100680.75;7364905;19;20010;-61
2023/09/23 04:35:58;;;;;;;0.00;0.00;;;;;;;9.22;60.76;100710.88;7366644;19;19998;-63
2023/09/23 04:38:26;;;;;;;0.10;0.10;;;;;;;9.07;60.33;100680.75;7365277;19;20018;-63
2023/09/23 04:40:52;;;;;;;0.08;0.08;;;;;;;9.23;60.58;100686.56;7367182;19;20014;-63
2023/09/23 04:43:17;;;;;;;0.03;0.03;;;;;;;9.18;60.29;100672.75;7371384;19;20690;-63
2023/09/23 04:45:43;;;;;;;0.00;0.00;;;;;;;9.23;60.48;100685.69;7337251;19;20011;-62
2023/09/23 04:48:08;;;;;;;0.00;0.00;;;;;;;9.27;60.42;100693.41;7365083;19;20671;-63
2023/09/23 04:50:34;;;;;;;0.00;0.00;;;;;;;9.27;60.23;100692.56;7375129;19;20101;-62
2023/09/23 04:53:00;;;;;;;0.00;0.00;;;;;;;9.16;60.18;100668.44;7366518;19;20002;-63
2023/09/23 04:55:29;;;;;;;0.00;0.00;;;;;;;9.29;60.24;100685.59;7362378;19;20017;-62
2023/09/23 04:57:55;;;;;;;0.00;0.00;;;;;;;9.26;59.99;100685.63;7364779;19;19995;-63
2023/09/23 05:00:21;;;;;;;0.03;0.03;;;;;;;9.14;60.60;100668.47;7359166;19;20006;-60
2023/09/23 05:02:51;;;;;;;0.00;0.00;;;;;;;9.30;60.23;100695.13;7361180;19;20081;-63
2023/09/23 05:05:17;;;;;;;0.10;0.10;;;;;;;9.22;60.22;100674.38;7363761;19;20035;-63
2023/09/23 05:07:42;;;;;;;0.00;0.00;;;;;;;9.30;60.49;100684.69;7360437;19;20027;-60
2023/09/23 05:10:09;;;;;;;0.00;0.00;;;;;;;9.28;60.21;100689.94;7364755;19;20010;-61
2023/09/23 05:12:34;;;;;;;0.00;0.00;;;;;;;9.30;60.07;100697.72;7369408;19;20655;-63
2023/09/23 05:15:00;;;;;;;0.00;0.00;;;;;;;9.27;60.29;100687.34;7368679;19;20015;-63
2023/09/23 05:17:28;;;;;;;0.00;0.00;;;;;;;9.27;60.50;100687.34;7372621;19;20108;-63
2023/09/23 05:19:54;;;;;;;0.00;0.00;;;;;;;9.13;60.17;100665.91;7371274;19;20362;-63
2023/09/23 05:22:19;;;;;;;0.10;0.10;;;;;;;9.27;60.25;100687.34;7372520;19;20010;-62
2023/09/23 05:24:47;;;;;;;0.00;0.00;;;;;;;9.24;60.47;100690.03;7361616;19;20446;-61
2023/09/23 05:27:14;;;;;;;0.00;0.00;;;;;;;9.22;60.45;100689.16;7371039;19;20047;-63
2023/09/23 05:29:40;;;;;;;0.07;0.07;;;;;;;9.21;60.68;100697.88;7363819;19;20489;-63
2023/09/23 05:32:07;;;;;;;0.00;0.00;;;;;;;9.16;60.59;100694.50;7370427;19;20014;-63
2023/09/23 05:34:32;;;;;;;0.00;0.00;;;;;;;9.15;60.35;100698.00;7353221;19;20054;-61
2023/09/23 05:36:58;;;;;;;0.08;0.08;;;;;;;9.14;60.48;100704.09;7371540;19;20032;-63
2023/09/23 05:39:23;;;;;;;0.05;0.05;;;;;;;9.15;60.16;100711.00;7367563;19;20491;-63
2023/09/23 05:41:51;;;;;;;0.00;0.00;;;;;;;9.06;61.07;100699.00;7377314;19;20022;-62
2023/09/23 05:44:17;;;;;;;;;;;;;;;9.14;57.99;100711.91;7350719;19;20031;-62
2023/09/23 05:46:43;;;;;;;0.10;0.10;;;;;;;9.10;60.71;100722.38;7370898;19;19931;-61
2023/09/23 05:49:09;;;;;;;0.10;0.10;;;;;;;8.95;60.67;100706.13;7368587;19;20107;-63
2023/09/23 05:51:34;;;;;;;0.03;0.03;;;;;;;9.03;60.77;100715.53;7374320;19;20011;-62
2023/09/23 05:54:03;;;;;;;0.10;0.10;;;;;;;9.04;60.83;100725.06;7371017;19;20019;-62
2023/09/23 05:56:29;;;;;;;0.00;0.00;;;;;;;8.99;60.98;100719.06;7370964;19;20025;-62
2023/09/23 05:58:54;;;;;;;0.00;0.00;;;;;;;9.02;61.20;100732.06;7364698;19;20006;-62
2023/09/23 06:01:20;;;;;;;0.00;0.00;;;;;;;8.93;60.98;100713.13;7368817;19;20011;-61
2023/09/23 06:03:45;;;;;;;0.03;0.03;;;;;;;9.01;61.34;100730.31;7365998;19;20014;-62
2023/09/23 06:06:11;;;;;;;0.10;0.10;;;;;;;8.94;61.36;100726.09;7367703;19;20015;-62
2023/09/23 06:08:37;;;;;;;0.00;0.00;;;;;;;9.00;61.58;100732.97;7368814;19;20113;-63
2023/09/23 06:11:04;;;;;;;0.10;0.10;;;;;;;8.98;61.43;100753.81;7369872;19;20010;-63
2023/09/23 06:13:32;;;;;;;0.00;0.00;;;;;;;8.94;61.33;100740.88;7366820;19;20033;-62
2023/09/23 06:16:05;;;;;;;0.10;0.10;;;;;;;8.92;61.03;100722.69;7367509;19;20605;-63
2023/09/23 06:18:31;;;;;;;0.00;0.00;;;;;;;8.96;61.28;100739.09;7369817;19;20030;-63
2023/09/23 06:20:58;;;;;;;0.10;0.10;;;;;;;8.87;61.09;100732.31;7365258;19;20009;-63
2023/09/23 06:23:24;;;;;;;0.00;0.00;;;;;;;8.86;61.13;100720.13;7364788;19;20022;-63
2023/09/23 06:25:57;;;;;;;0.00;0.00;;;;;;;9.01;61.27;100755.50;7355593;19;21162;-63
2023/09/23 06:28:23;;;;;;;0.00;0.00;;;;;;;8.96;61.56;100739.09;7369641;19;20370;-63
2023/09/23 06:30:48;;;;;;;0.10;0.10;;;;;;;8.98;61.31;100743.41;7368426;19;20003;-62
2023/09/23 06:33:14;;;;;;;0.10;0.10;;;;;;;8.90;61.25;100734.84;7374291;19;20018;-63
2023/09/23 06:35:39;;;;;;;0.10;0.10;;;;;;;8.99;61.35;100745.13;7365249;19;20047;-62
2023/09/23 06:38:05;;;;;;;0.05;0.05;;;;;;;8.99;61.27;100745.13;7368458;19;20018;-62
2023/09/23 06:40:30;;;;;;;0.08;0.08;;;;;;;9.01;61.53;100748.56;7363007;19;20047;-63
2023/09/23 06:42:56;;;;;;;0.00;0.00;;;;;;;8.86;61.46;100727.94;7367604;19;20028;-62
2023/09/23 06:45:21;;;;;;;0.00;0.00;;;;;;;8.84;61.62;100721.91;7371882;19;20501;-62
2023/09/23 06:47:46;;;;;;;0.03;0.03;;;;;;;8.93;61.27;100740.00;7364929;19;20034;-62
2023/09/23 06:50:12;;;;;;;0.10;0.10;;;;;;;9.07;61.26;100764.09;7362684;19;20105;-62
2023/09/23 06:52:37;;;;;;;0.08;0.08;;;;;;;9.08;61.43;100759.75;7366614;19;20422;-62
2023/09/23 06:55:03;;;;;;;0.00;0.00;;;;;;;8.95;61.57;100743.44;7367282;19;20002;-61
2023/09/23 06:57:28;;;;;;;0.00;0.00;;;;;;;8.98;61.26;100748.63;7368864;19;20431;-62
2023/09/23 06:59:53;;;;;;;0.10;0.10;;;;;;;9.03;61.16;100757.22;7364637;19;20109;-63
2023/09/23 07:02:20;;;;;;;0.00;0.00;;;;;;;9.08;61.15;100760.63;7363138;19;20017;-62
2023/09/23 07:04:45;;;;;;;0.00;0.00;;;;;;;9.16;61.49;100765.69;7363860;19;20015;-62
2023/09/23 07:07:12;;;;;;;0.00;0.00;;;;;;;9.16;61.33;100757.88;7367677;19;21477;-62
2023/09/23 07:09:38;;;;;;;0.00;0.00;;;;;;;8.96;61.38;100724.31;7365779;19;20014;-62
2023/09/23 07:12:03;;;;;;;0.10;0.10;;;;;;;9.17;61.21;100764.78;7356850;19;21808;-63
2023/09/23 07:14:30;;;;;;;0.05;0.05;;;;;;;9.22;61.02;100756.91;7367177;19;20034;-61
2023/09/23 07:16:56;;;;;;;0.00;0.00;;;;;;;9.17;61.36;100738.75;7367604;19;20015;-62
2023/09/23 07:19:21;;;;;;;0.08;0.08;;;;;;;9.30;61.26;100763.72;7370631;19;21800;-62
2023/09/23 07:21:47;;;;;;;0.10;0.10;;;;;;;9.38;61.39;100768.81;7368782;19;20018;-62
2023/09/23 07:24:12;;;;;;;0.10;0.10;;;;;;;9.42;61.39;100767.88;7365846;19;20010;-63
2023/09/23 07:26:38;;;;;;;0.00;0.00;;;;;;;9.33;61.37;100744.59;7365410;19;20018;-62
2023/09/23 07:29:03;;;;;;;0.10;0.10;;;;;;;9.45;61.62;100748.72;7364984;19;20636;-63
2023/09/23 07:31:29;;;;;;;0.00;0.00;;;;;;;9.64;61.64;100770.13;7365465;19;20014;-63
2023/09/23 07:33:54;;;;;;;0.00;0.00;;;;;;;9.69;61.70;100776.13;7368046;19;20667;-62
2023/09/23 07:36:20;;;;;;;0.10;0.10;;;;;;;9.71;62.07;100761.28;7364785;19;20328;-62
2023/09/23 07:38:45;;;;;;;0.00;0.00;;;;;;;9.89;62.03;100774.00;7366716;19;20013;-63
2023/09/23 07:41:11;;;;;;;0.00;0.00;;;;;;;9.91;62.22;100764.38;7374605;19;20032;-63
2023/09/23 07:43:38;;;;;;;0.10;0.10;;;;;;;10.08;62.17;100771.88;7371554;19;20519;-63
2023/09/23 07:46:04;;;;;;;0.10;0.10;;;;;;;10.18;61.98;100783.00;7369020;19;20026;-63
2023/09/23 07:48:29;;;;;;;0.00;0.00;;;;;;;10.29;62.46;100776.72;7365512;19;20494;-63
2023/09/23 07:50:55;;;;;;;0.10;0.10;;;;;;;10.39;62.55;100775.66;7362901;19;19999;-62
2023/09/23 07:53:21;;;;;;;0.08;0.08;;;;;;;10.49;62.28;100773.72;7362395;19;20006;-63
2023/09/23 07:55:47;;;;;;;0.10;0.10;;;;;;;10.48;61.94;100766.75;7365319;19;20023;-63
2023/09/23 07:58:12;;;;;;;0.00;0.00;;;;;;;10.69;61.77;100790.69;7363084;19;20006;-62
2023/09/23 08:00:38;;;;;;;0.03;0.03;;;;;;;10.83;62.13;100796.47;7358813;19;19999;-62
2023/09/23 08:03:04;;;;;;;0.10;0.10;;;;;;;10.87;61.94;100779.84;7365934;19;20010;-63
2023/09/23 08:05:29;;;;;;;0.10;0.10;;;;;;;10.99;61.93;100779.53;7360602;19;20425;-62
2023/09/23 08:07:55;;;;;;;0.10;0.10;;;;;;;11.18;61.54;100806.97;7362193;19;20013;-62
2023/09/23 08:10:21;;;;;;;0.05;0.05;;;;;;;11.19;62.09;100771.22;7362669;19;20006;-63
2023/09/23 08:12:46;;;;;;;0.10;0.10;;;;;;;11.47;61.66;100792.34;7359455;19;20042;-62
2023/09/23 08:15:12;;;;;;;0.00;0.00;;;;;;;11.62;61.35;100791.97;7361633;19;20015;-62
2023/09/23 08:17:39;;;;;;;0.00;0.00;;;;;;;11.79;61.61;100798.50;7365371;19;20014;-63
2023/09/23 08:20:17;;;;;;;0.10;0.10;;;;;;;11.91;61.27;100790.34;7363345;19;20559;-62
2023/09/23 08:22:43;;;;;;;0.10;0.10;;;;;;;12.17;61.28;100795.75;7369800;19;20352;-63
2023/09/23 08:25:08;;;;;;;0.00;0.00;;;;;;;12.37;60.71;100799.59;7363034;19;20035;-61
2023/09/23 08:27:34;;;;;;;0.10;0.10;;;;;;;12.56;60.66;100808.59;7361084;19;20007;-61
2023/09/23 08:29:59;;;;;;;0.10;0.10;;;;;;;12.71;60.37;100800.28;7355128;19;20015;-61
2023/09/23 08:32:25;;;;;;;0.10;0.10;;;;;;;12.86;60.62;100805.97;7360202;19;20002;-61
2023/09/23 08:34:50;;;;;;;0.10;0.10;;;;;;;12.98;60.36;100801.22;7366789;19;20442;-61
2023/09/23 08:37:15;;;;;;;0.05;0.05;;;;;;;13.11;59.92;100804.31;7363034;19;20010;-61
2023/09/23 08:39:41;;;;;;;0.10;0.10;;;;;;;13.28;60.19;100809.09;7358205;19;20010;-61
2023/09/23 08:42:07;;;;;;;0.10;0.10;;;;;;;13.45;60.34;100800.66;7360772;19;20010;-61
2023/09/23 08:44:35;;;;;;;0.10;0.10;;;;;;;13.64;60.28;100795.66;7352530;19;20031;-61
2023/09/23 08:47:01;;;;;;;0.10;0.10;;;;;;;13.88;59.73;100799.19;7359965;19;20010;-61
2023/09/23 08:49:29;;;;;;;0.10;0.10;;;;;;;14.13;59.58;100805.28;7357377;19;20047;-61
2023/09/23 08:51:55;;;;;;;0.10;0.10;;;;;;;14.33;59.72;100801.09;7358019;19;20035;-61
2023/09/23 08:54:25;;;;;;;0.10;0.10;;;;;;;14.54;59.09;100801.19;7358080;19;20018;-62
2023/09/23 08:56:52;;;;;;;0.10;0.10;;;;;;;14.77;58.71;100802.94;7361688;19;20459;-61
2023/09/23 08:59:17;;;;;;;0.10;0.10;;;;;;;15.00;58.67;100806.44;7357636;19;20022;-61
2023/09/23 09:01:44;;;;;;;0.10;0.10;;;;;;;15.16;58.03;100786.53;7353483;19;20003;-60
2023/09/23 09:04:13;;;;;;;0.10;0.10;;;;;;;15.51;57.59;100795.63;7357176;19;21538;-61
2023/09/23 09:06:52;;;;;;;0.10;0.10;;;;;;;15.79;56.74;100795.31;7363814;19;20014;-61
2023/09/23 09:09:18;;;;;;;0.10;0.10;;;;;;;15.90;55.77;100804.53;7356850;19;20026;-61
2023/09/23 09:11:50;;;;;;;0.10;0.10;;;;;;;16.14;56.10;100806.09;7362703;19;20516;-61
2023/09/23 09:14:16;;;;;;;0.10;0.10;;;;;;;16.29;55.38;100808.06;7366418;19;21006;-62
2023/09/23 09:16:43;;;;;;;0.10;0.10;;;;;;;16.50;54.60;100808.88;7363372;19;20007;-61
2023/09/23 09:19:08;;;;;;;0.10;0.10;;;;;;;16.73;54.82;100799.94;7357780;19;21913;-61
2023/09/23 09:21:34;;;;;;;0.10;0.10;;;;;;;16.95;53.85;100793.66;7370081;19;20098;-61
2023/09/23 09:24:00;;;;;;;0.10;0.10;;;;;;;17.22;53.12;100792.31;7360541;19;21917;-61
2023/09/23 09:26:25;;;;;;;0.10;0.10;;;;;;;17.48;52.34;100795.44;7358000;19;20006;-61
2023/09/23 09:28:51;;;;;;;0.10;0.10;;;;;;;17.72;52.05;100788.09;7363019;19;20021;-62
2023/09/23 09:31:17;;;;;;;0.10;0.10;;;;;;;18.01;51.09;100786.63;7362980;19;20014;-61
2023/09/23 09:33:47;;;;;;;0.10;0.10;;;;;;;18.29;49.95;100792.16;7361029;19;19998;-61
2023/09/23 09:36:17;;;;;;;0.08;0.08;;;;;;;18.54;49.86;100790.84;7337045;19;20014;-62
2023/09/23 09:38:44;;;;;;;0.10;0.10;;;;;;;18.81;49.90;100799.94;7357893;19;20605;-62
2023/09/23 09:41:16;;;;;;;0.05;0.05;;;;;;;19.18;48.57;100795.22;7357062;19;20822;-61
2023/09/23 09:43:45;;;;;;;0.00;0.00;;;;;;;19.39;45.40;100795.78;7346202;19;20030;-61
2023/09/23 09:46:13;;;;;;;0.10;0.10;;;;;;;19.61;45.47;100795.41;7361969;19;20022;-61
2023/09/23 09:48:41;;;;;;;0.10;0.10;;;;;;;19.75;42.67;100787.50;7357347;19;20093;-61
2023/09/23 09:51:07;;;;;;;0.10;0.10;;;;;;;19.88;43.49;100788.50;7361890;19;20109;-61
2023/09/23 09:53:36;;;;;;;0.10;0.10;;;;;;;20.08;41.90;100778.47;7358131;19;19998;-61
2023/09/23 09:56:04;;;;;;;0.10;0.10;;;;;;;20.24;41.48;100783.69;7361953;19;20034;-61
2023/09/23 09:58:40;;;;;;;0.10;0.10;;;;;;;20.49;45.17;100780.41;7369757;19;20003;-61
2023/09/23 10:01:12;;;;;;;0.10;0.10;;;;;;;20.61;42.63;100779.63;7366948;19;20631;-61
2023/09/23 10:03:39;;;;;;;0.10;0.10;;;;;;;20.69;41.16;100783.50;7367780;19;19999;-61
2023/09/23 10:06:07;;;;;;;0.08;0.08;;;;;;;20.91;42.30;100780.31;7368208;19;20007;-62
2023/09/23 10:08:38;;;;;;;0.10;0.10;;;;;;;21.14;41.47;100780.63;7369168;19;19998;-61
2023/09/23 10:11:09;;;;;;;0.10;0.10;;;;;;;21.31;41.22;100775.09;7365095;19;20105;-61
2023/09/23 10:13:35;;;;;;;0.10;0.10;;;;;;;21.37;39.87;100769.34;7376639;19;20010;-62
2023/09/23 10:16:05;;;;;;;0.10;0.10;;;;;;;21.48;41.01;100756.19;7373936;19;20042;-61
2023/09/23 10:18:39;;;;;;;0.10;0.10;;;;;;;21.74;41.42;100766.88;7374858;19;20493;-61
2023/09/23 10:21:06;;;;;;;0.00;0.00;;;;;;;21.88;39.48;100761.47;7375619;19;20015;-61
2023/09/23 10:23:36;;;;;;;0.00;0.00;;;;;;;22.15;39.38;100764.06;7374903;19;20023;-61
2023/09/23 10:26:30;;;;;;;0.00;0.00;;;;;;;22.58;43.07;100754.84;7366245;19;20014;-61
2023/09/23 10:28:57;;;;;;;0.00;0.00;;;;;;;22.69;38.01;100760.22;7365786;19;20010;-61
2023/09/23 10:31:27;;;;;;;0.10;0.10;;;;;;;22.91;38.31;100752.41;7369300;19;20014;-61
2023/09/23 10:33:53;;;;;;;0.10;0.10;;;;;;;23.03;37.25;100756.84;7365978;19;20023;-61
2023/09/23 10:36:20;;;;;;;0.10;0.10;;;;;;;23.22;38.03;100750.16;7365989;19;20028;-62
2023/09/23 10:38:46;;;;;;;0.10;0.10;;;;;;;23.42;37.13;100752.16;7368442;19;20665;-61
2023/09/23 10:41:11;;;;;;;0.10;0.10;;;;;;;23.65;34.89;100736.25;7366595;19;20017;-61
2023/09/23 10:43:37;;;;;;;0.10;0.10;;;;;;;23.81;35.47;100737.59;7374149;19;20018;-62
2023/09/23 10:46:02;;;;;;;0.10;0.10;;;;;;;24.04;34.93;100735.81;7367390;19;20466;-61
2023/09/23 10:48:29;;;;;;;0.10;0.10;;;;;;;24.23;33.84;100734.34;7368586;19;20484;-61
2023/09/23 10:50:54;;;;;;;0.20;0.20;;;;;;;24.33;35.62;100728.19;7367684;19;20018;-62
2023/09/23 10:53:24;;;;;;;0.10;0.10;;;;;;;24.52;34.79;100730.22;7366741;19;20014;-62
2023/09/23 10:55:50;;;;;;;0.00;0.00;;;;;;;24.73;34.90;100735.66;7361747;19;20038;-61
2023/09/23 10:58:16;;;;;;;0.10;0.10;;;;;;;25.01;33.07;100718.22;7365773;19;20070;-62
2023/09/23 11:00:42;;;;;;;0.10;0.10;;;;;;;25.24;33.70;100718.13;7365601;19;20081;-61
2023/09/23 11:03:15;;;;;;;0.10;0.10;;;;;;;25.56;34.85;100716.28;7365372;19;20010;-62
2023/09/23 11:05:43;;;;;;;0.03;0.03;;;;;;;25.74;31.91;100721.84;7350241;19;20392;-61
2023/09/23 11:08:10;;;;;;;0.10;0.10;;;;;;;25.94;32.88;100701.44;7362773;19;20030;-61
2023/09/23 11:10:39;;;;;;;0.10;0.10;;;;;;;26.22;33.11;100709.72;7362329;19;20015;-61
2023/09/23 11:13:06;;;;;;;0.10;0.10;;;;;;;26.27;31.16;100697.63;7359483;19;20093;-61
2023/09/23 11:15:32;;;;;;;;;;;;;;;26.62;37.14;100713.25;7361919;19;20010;-61
2023/09/23 11:17:58;;;;;;;0.10;0.10;;;;;;;26.58;32.05;100705.63;7361173;19;19926;-61
2023/09/23 11:20:31;;;;;;;0.05;0.05;;;;;;;26.85;32.80;100713.00;7360898;19;20006;-61
2023/09/23 11:23:05;;;;;;;0.10;0.10;;;;;;;26.89;29.50;100695.66;7363146;19;20863;-61
2023/09/23 11:25:46;;;;;;;0.10;0.10;;;;;;;27.18;33.98;100697.53;7360341;19;20708;-61
2023/09/23 11:28:22;;;;;;;0.10;0.10;;;;;;;27.31;30.36;100698.06;7363755;19;20011;-61